Time;durP1;ratioP1;P1;durP2;ratioP2;P2;SDS_P1;SDS_P2;PMS_P1;PMS_P2;Temp;Humidity;BMP_temperature;BMP_pressure;BME280_temperature;BME280_humidity;BME280_pressure;Samples;Min_cycle;Max_cycle;Signal;HPM_P1;HPM_P2
2021/06/17 00:00:21;;;;;;;13.13;10.30;;;24.00;74.80;;;;;;5053556;28;20043;-83
2021/06/17 00:02:48;;;;;;;12.55;10.13;;;23.90;75.10;;;;;;5052374;28;20123;-83
2021/06/17 00:05:16;;;;;;;12.25;10.25;;;23.90;75.20;;;;;;5051936;28;20029;-82
2021/06/17 00:07:42;;;;;;;15.27;9.95;;;23.90;75.30;;;;;;5051089;28;20025;-81
2021/06/17 00:10:14;;;;;;;11.98;9.70;;;23.80;75.10;;;;;;5052087;28;20025;-83
2021/06/17 00:12:39;;;;;;;11.93;10.10;;;23.80;75.00;;;;;;5051880;28;20017;-82
2021/06/17 00:15:08;;;;;;;13.90;10.25;;;23.80;74.80;;;;;;5035129;28;20496;-82
2021/06/17 00:17:34;;;;;;;13.35;10.00;;;23.80;74.60;;;;;;5051080;28;20029;-82
2021/06/17 00:20:00;;;;;;;14.02;10.18;;;23.80;74.40;;;;;;5053413;28;20491;-83
2021/06/17 00:22:25;;;;;;;11.82;9.35;;;23.70;74.30;;;;;;5052947;28;20033;-82
2021/06/17 00:24:51;;;;;;;14.18;9.55;;;23.70;74.10;;;;;;5035331;28;20027;-83
2021/06/17 00:27:17;;;;;;;13.00;9.20;;;23.70;73.90;;;;;;5035440;28;20064;-83
2021/06/17 00:29:42;;;;;;;11.10;9.70;;;23.70;73.60;;;;;;5051797;28;20511;-82
2021/06/17 00:32:08;;;;;;;12.40;8.63;;;23.70;73.40;;;;;;5034625;28;20029;-82
2021/06/17 00:34:34;;;;;;;10.75;9.10;;;23.70;73.10;;;;;;5035525;28;20025;-82
2021/06/17 00:37:00;;;;;;;16.08;9.00;;;23.70;72.90;;;;;;5051135;28;20098;-82
2021/06/17 00:39:25;;;;;;;18.17;9.10;;;23.70;72.80;;;;;;5034724;28;20167;-83
2021/06/17 00:41:51;;;;;;;11.90;9.30;;;23.60;72.70;;;;;;5052574;28;20021;-82
2021/06/17 00:44:17;;;;;;;11.70;8.98;;;23.70;72.60;;;;;;5034338;28;20021;-83
2021/06/17 00:46:42;;;;;;;11.40;9.50;;;23.60;72.20;;;;;;5035109;28;20048;-82
2021/06/17 00:49:08;;;;;;;12.15;8.68;;;23.60;72.10;;;;;;5052519;28;20473;-83
2021/06/17 00:51:34;;;;;;;11.45;9.02;;;23.60;72.00;;;;;;5051197;28;20037;-83
2021/06/17 00:54:00;;;;;;;12.43;9.65;;;23.60;72.00;;;;;;5051249;28;20393;-83
2021/06/17 00:56:26;;;;;;;13.45;9.20;;;23.50;72.30;;;;;;5052581;28;20068;-83
2021/06/17 00:58:52;;;;;;;11.77;9.57;;;23.50;72.70;;;;;;5051789;28;20029;-82
2021/06/17 01:01:18;;;;;;;14.43;9.13;;;23.50;72.90;;;;;;5051339;28;20053;-82
2021/06/17 01:03:43;;;;;;;11.82;8.85;;;23.50;73.10;;;;;;5051766;28;20103;-82
2021/06/17 01:06:10;;;;;;;12.27;9.07;;;23.50;73.20;;;;;;5050632;28;20370;-82
2021/06/17 01:09:02;;;;;;;10.93;8.98;;;23.40;73.70;;;;;;5051658;28;20037;-81
2021/06/17 01:11:45;;;;;;;17.23;9.90;;;23.40;73.10;;;;;;5050007;28;20555;-81
2021/06/17 01:14:23;;;;;;;12.43;10.07;;;23.40;73.40;;;;;;5051204;28;20030;-82
2021/06/17 01:16:58;;;;;;;10.63;9.05;;;23.40;73.50;;;;;;5052744;28;20055;-81
2021/06/17 01:19:30;;;;;;;11.80;9.35;;;23.30;73.40;;;;;;5054319;28;20021;-81
2021/06/17 01:22:07;;;;;;;13.48;9.57;;;23.40;73.40;;;;;;5056314;28;20488;-81
2021/06/17 01:25:00;;;;;;;13.38;10.13;;;23.30;73.40;;;;;;5054828;28;20028;-82
2021/06/17 01:27:37;;;;;;;12.00;9.27;;;23.30;73.60;;;;;;5055267;28;20020;-82
2021/06/17 01:30:11;;;;;;;12.23;9.20;;;23.30;73.40;;;;;;5056208;28;20056;-82
2021/06/17 01:32:46;;;;;;;16.67;10.15;;;23.30;73.30;;;;;;5054851;28;20021;-82
2021/06/17 01:35:14;;;;;;;13.13;10.07;;;23.30;73.10;;;;;;5055981;28;20029;-81
2021/06/17 01:37:41;;;;;;;11.88;9.43;;;23.30;73.00;;;;;;5055586;28;20032;-83
2021/06/17 01:40:11;;;;;;;11.52;9.38;;;23.20;72.90;;;;;;5054156;28;20558;-83
2021/06/17 01:42:39;;;;;;;11.93;9.25;;;23.20;73.00;;;;;;5055642;28;20017;-82
2021/06/17 01:45:06;;;;;;;17.08;10.00;;;23.20;73.10;;;;;;5056050;28;20032;-81
2021/06/17 01:47:33;;;;;;;10.82;9.50;;;23.20;73.30;;;;;;5054763;28;20507;-82
2021/06/17 01:50:00;;;;;;;13.70;10.18;;;23.10;73.40;;;;;;5037595;28;20408;-82
2021/06/17 01:52:29;;;;;;;14.20;9.57;;;23.10;74.00;;;;;;5055626;28;20029;-82
2021/06/17 01:54:57;;;;;;;13.05;10.10;;;23.10;75.10;;;;;;5055344;28;20045;-82
2021/06/17 01:57:24;;;;;;;12.15;10.27;;;23.00;75.70;;;;;;5054120;28;20056;-82
2021/06/17 01:59:51;;;;;;;12.77;9.73;;;22.90;76.00;;;;;;5055544;28;20040;-82
2021/06/17 02:02:18;;;;;;;20.40;10.50;;;22.90;76.20;;;;;;5054443;28;20029;-82
2021/06/17 02:04:47;;;;;;;13.00;10.52;;;22.80;76.30;;;;;;5037440;28;20025;-83
2021/06/17 02:07:14;;;;;;;14.32;10.43;;;22.80;76.40;;;;;;5053969;28;20017;-83
2021/06/17 02:09:40;;;;;;;16.50;10.45;;;22.70;76.40;;;;;;5054233;28;20021;-83
2021/06/17 02:12:06;;;;;;;14.95;10.40;;;22.70;76.50;;;;;;5037273;28;20052;-83
2021/06/17 02:14:33;;;;;;;14.57;10.68;;;22.70;76.50;;;;;;5054266;28;20120;-82
2021/06/17 02:17:02;;;;;;;14.15;11.65;;;22.70;76.60;;;;;;5053831;28;20021;-83
2021/06/17 02:19:32;;;;;;;15.32;12.05;;;22.70;76.80;;;;;;5055112;28;20426;-82
2021/06/17 02:22:00;;;;;;;13.70;10.65;;;22.70;77.00;;;;;;5055375;28;20025;-83
2021/06/17 02:24:27;;;;;;;13.20;10.80;;;22.70;76.90;;;;;;5054045;28;20047;-82
2021/06/17 02:26:58;;;;;;;16.42;11.13;;;22.70;76.80;;;;;;5053712;28;20037;-82
2021/06/17 02:29:24;;;;;;;15.07;11.00;;;22.60;76.70;;;;;;5053984;28;20033;-82
2021/06/17 02:31:53;;;;;;;14.20;11.35;;;22.60;76.60;;;;;;5053655;28;20044;-82
2021/06/17 02:34:19;;;;;;;13.50;10.63;;;22.60;76.60;;;;;;5037323;28;20036;-82
2021/06/17 02:36:47;;;;;;;14.80;11.13;;;22.60;76.60;;;;;;5053707;28;20124;-82
2021/06/17 02:39:17;;;;;;;12.52;10.70;;;22.60;76.60;;;;;;5053566;28;20025;-82
2021/06/17 02:41:50;;;;;;;15.57;11.65;;;22.60;76.50;;;;;;5053338;28;20032;-82
2021/06/17 02:44:16;;;;;;;14.05;11.60;;;22.50;76.50;;;;;;5053295;28;20031;-82
2021/06/17 02:46:43;;;;;;;16.05;12.10;;;22.50;76.50;;;;;;5054389;28;20358;-81
2021/06/17 02:49:09;;;;;;;15.55;12.20;;;22.50;76.40;;;;;;5036992;28;20029;-82
2021/06/17 02:51:35;;;;;;;18.40;13.57;;;22.50;76.30;;;;;;5053009;28;20128;-82
2021/06/17 02:54:02;;;;;;;16.23;12.00;;;22.50;76.40;;;;;;5036603;28;20060;-82
2021/06/17 02:56:42;;;;;;;15.90;12.18;;;22.50;76.50;;;;;;5054780;28;20037;-81
2021/06/17 02:59:26;;;;;;;16.10;12.60;;;22.50;76.60;;;;;;5052750;28;20033;-81
2021/06/17 03:02:00;;;;;;;16.15;13.85;;;22.50;76.50;;;;;;5052602;28;20025;-81
2021/06/17 03:04:58;;;;;;;17.67;13.20;;;22.50;76.60;;;;;;5052771;28;20021;-81
2021/06/17 03:07:26;;;;;;;17.67;13.27;;;22.50;76.80;;;;;;5053897;28;20029;-81
2021/06/17 03:09:58;;;;;;;17.92;13.93;;;22.40;76.70;;;;;;5054080;28;20025;-81
2021/06/17 03:12:26;;;;;;;15.88;13.57;;;22.40;76.90;;;;;;5053701;28;20143;-81
2021/06/17 03:14:55;;;;;;;18.95;14.38;;;22.40;77.10;;;;;;5052484;28;20420;-81
2021/06/17 03:17:23;;;;;;;17.13;13.07;;;22.50;77.10;;;;;;5036330;28;20025;-82
2021/06/17 03:19:55;;;;;;;15.02;13.40;;;22.50;77.10;;;;;;5036596;28;20041;-81
2021/06/17 03:22:24;;;;;;;15.52;12.95;;;22.50;77.00;;;;;;5053840;28;20020;-81
2021/06/17 03:24:51;;;;;;;20.65;13.52;;;22.50;77.50;;;;;;5035875;28;20365;-81
2021/06/17 03:27:18;;;;;;;15.82;13.70;;;22.50;76.80;;;;;;5052908;28;20025;-81
2021/06/17 03:29:48;;;;;;;15.95;13.05;;;22.60;76.70;;;;;;5052621;28;20028;-81
2021/06/17 03:32:16;;;;;;;17.77;13.77;;;22.60;76.70;;;;;;5052098;28;20119;-82
2021/06/17 03:34:44;;;;;;;18.92;15.27;;;22.60;76.60;;;;;;5053202;28;20033;-81
2021/06/17 03:37:11;;;;;;;19.30;14.05;;;22.60;76.60;;;;;;5052181;28;20075;-81
2021/06/17 03:39:38;;;;;;;16.83;13.45;;;22.60;76.70;;;;;;5052339;28;20055;-81
2021/06/17 03:42:06;;;;;;;16.90;13.30;;;22.60;76.60;;;;;;5053144;28;20350;-81
2021/06/17 03:44:34;;;;;;;16.10;14.20;;;22.60;76.50;;;;;;5053417;28;20037;-82
2021/06/17 03:47:01;;;;;;;18.90;14.40;;;22.60;76.40;;;;;;5053431;28;20021;-81
2021/06/17 03:49:31;;;;;;;16.08;13.55;;;22.60;76.40;;;;;;5052288;28;20029;-82
2021/06/17 03:51:58;;;;;;;17.10;13.95;;;22.60;76.40;;;;;;5035649;28;20041;-82
2021/06/17 03:54:29;;;;;;;16.75;14.25;;;22.70;76.50;;;;;;5051662;28;20128;-81
2021/06/17 03:56:57;;;;;;;15.73;14.05;;;22.60;76.40;;;;;;5053668;28;20453;-81
2021/06/17 03:59:26;;;;;;;16.30;13.90;;;22.60;76.40;;;;;;5052347;28;20021;-81
2021/06/17 04:01:52;;;;;;;18.08;14.73;;;22.60;76.40;;;;;;5050639;28;20021;-81
2021/06/17 04:04:19;;;;;;;18.92;14.90;;;22.60;76.50;;;;;;5034591;28;20017;-81
2021/06/17 04:06:51;;;;;;;16.63;13.93;;;22.60;76.40;;;;;;5049888;28;20033;-82
2021/06/17 04:09:27;;;;;;;18.77;14.65;;;22.60;76.40;;;;;;5053297;28;20025;-81
2021/06/17 04:11:59;;;;;;;15.05;13.40;;;22.60;76.50;;;;;;5035020;28;20047;-82
2021/06/17 04:14:26;;;;;;;17.67;14.30;;;22.60;76.40;;;;;;5049201;28;20025;-82
2021/06/17 04:16:53;;;;;;;16.77;14.98;;;22.60;76.40;;;;;;5051609;28;20032;-81
2021/06/17 04:19:25;;;;;;;20.13;15.93;;;22.60;76.40;;;;;;5051984;28;20029;-82
2021/06/17 04:21:54;;;;;;;18.02;14.63;;;22.60;76.40;;;;;;5050722;28;20021;-81
2021/06/17 04:24:22;;;;;;;18.63;14.05;;;22.60;76.40;;;;;;5035373;28;20029;-81
2021/06/17 04:26:49;;;;;;;16.23;14.50;;;22.50;76.50;;;;;;5051678;28;20373;-81
2021/06/17 04:29:17;;;;;;;15.65;13.43;;;22.50;76.70;;;;;;5051611;28;20025;-81
2021/06/17 04:31:49;;;;;;;20.90;14.00;;;22.60;76.80;;;;;;5051405;28;20045;-81
2021/06/17 04:34:16;;;;;;;16.92;14.55;;;22.60;76.70;;;;;;5051796;28;20017;-82
2021/06/17 04:36:42;;;;;;;15.38;13.77;;;22.60;76.70;;;;;;5034396;28;20052;-81
2021/06/17 04:39:08;;;;;;;16.55;14.05;;;22.60;76.60;;;;;;5051767;28;20029;-81
2021/06/17 04:41:36;;;;;;;17.52;14.15;;;22.60;77.30;;;;;;5051433;28;20021;-80
2021/06/17 04:44:02;;;;;;;16.27;14.55;;;22.60;76.60;;;;;;5034961;28;20032;-80
2021/06/17 04:46:30;;;;;;;17.75;14.27;;;22.60;76.60;;;;;;5034997;28;20029;-80
2021/06/17 04:48:56;;;;;;;16.60;14.20;;;22.60;76.60;;;;;;5052823;28;20108;-80
2021/06/17 04:51:25;;;;;;;15.55;13.95;;;22.60;76.60;;;;;;5051392;28;20045;-81
2021/06/17 04:53:53;;;;;;;16.45;13.73;;;22.70;76.60;;;;;;5055073;28;20056;-81
2021/06/17 04:56:19;;;;;;;18.85;15.05;;;22.70;76.60;;;;;;5055229;28;20396;-82
2021/06/17 04:58:49;;;;;;;17.52;14.00;;;22.70;76.50;;;;;;5038620;28;20451;-82
2021/06/17 05:01:17;;;;;;;24.40;14.68;;;22.80;76.50;;;;;;5039982;28;20022;-82
2021/06/17 05:03:42;;;;;;;16.48;13.68;;;22.80;76.40;;;;;;5057170;28;20124;-82
2021/06/17 05:06:09;;;;;;;19.17;14.43;;;22.90;76.40;;;;;;5054997;28;20021;-82
2021/06/17 05:11:20;;;;;;;16.20;13.57;;;22.90;76.20;;;;;;5056075;28;20056;-82
2021/06/17 05:13:46;;;;;;;17.38;14.65;;;23.00;76.20;;;;;;5056448;28;20017;-78
2021/06/17 05:16:11;;;;;;;18.88;14.23;;;23.00;76.00;;;;;;5036842;28;20086;-78
2021/06/17 05:18:37;;;;;;;18.23;14.27;;;23.00;75.90;;;;;;5054689;28;20041;-79
2021/06/17 05:21:04;;;;;;;16.98;14.32;;;23.10;75.90;;;;;;5036732;28;20478;-78
2021/06/17 05:23:30;;;;;;;19.00;15.30;;;23.10;75.80;;;;;;5041047;28;20029;-79
2021/06/17 05:25:58;;;;;;;16.48;13.77;;;23.20;75.70;;;;;;5041539;28;20021;-78
2021/06/17 05:28:26;;;;;;;14.63;13.07;;;23.30;75.70;;;;;;5049050;28;20026;-78
2021/06/17 05:30:54;;;;;;;13.45;11.82;;;23.30;75.50;;;;;;5042231;28;20106;-78
2021/06/17 05:33:20;;;;;;;16.05;12.18;;;23.40;75.30;;;;;;5028552;28;20029;-78
2021/06/17 05:35:47;;;;;;;15.82;12.75;;;23.40;75.10;;;;;;5045536;28;20036;-78
2021/06/17 05:38:22;;;;;;;16.42;12.15;;;23.50;74.80;;;;;;5045345;28;20036;-78
2021/06/17 05:40:49;;;;;;;15.82;11.27;;;23.50;74.70;;;;;;5033505;28;20029;-78
2021/06/17 05:43:15;;;;;;;18.90;11.35;;;23.50;74.60;;;;;;5052331;28;20119;-78
2021/06/17 05:45:41;;;;;;;14.07;10.93;;;23.60;74.40;;;;;;5047680;28;20120;-79
2021/06/17 05:48:07;;;;;;;13.40;10.18;;;23.50;74.20;;;;;;5046410;28;20071;-78
2021/06/17 05:50:33;;;;;;;15.52;10.55;;;23.60;74.10;;;;;;5031672;28;20544;-78
2021/06/17 05:52:59;;;;;;;14.02;9.88;;;23.60;74.00;;;;;;5045723;28;20125;-78
2021/06/17 05:55:26;;;;;;;15.00;10.63;;;23.60;73.90;;;;;;5045827;28;20124;-78
2021/06/17 05:57:51;;;;;;;14.18;10.38;;;23.70;73.90;;;;;;5046008;28;20034;-79
2021/06/17 06:00:17;;;;;;;12.35;9.32;;;23.60;73.70;;;;;;5043849;28;20037;-78
2021/06/17 06:02:43;;;;;;;11.43;9.18;;;23.70;73.50;;;;;;5040762;28;20509;-79
2021/06/17 06:05:09;;;;;;;13.57;9.23;;;23.70;73.20;;;;;;5034406;28;20036;-79
2021/06/17 06:07:35;;;;;;;15.18;9.23;;;23.70;73.00;;;;;;5033614;28;20385;-78
2021/06/17 06:10:00;;;;;;;15.25;9.48;;;23.80;73.00;;;;;;5034120;28;20028;-79
2021/06/17 06:12:26;;;;;;;12.00;7.75;;;23.80;72.80;;;;;;5034303;28;20061;-79
2021/06/17 06:14:52;;;;;;;13.52;8.40;;;23.90;72.80;;;;;;5034030;28;20036;-79
2021/06/17 06:17:19;;;;;;;12.07;8.65;;;23.90;72.60;;;;;;5017306;28;20030;-78
2021/06/17 06:19:44;;;;;;;12.18;9.18;;;23.90;72.60;;;;;;5033219;28;20030;-79
2021/06/17 06:22:10;;;;;;;12.55;9.10;;;24.00;72.60;;;;;;5033501;28;20044;-79
2021/06/17 06:24:37;;;;;;;12.68;8.13;;;24.00;72.50;;;;;;5033890;28;20512;-79
2021/06/17 06:27:07;;;;;;;10.23;7.65;;;24.00;72.50;;;;;;5034784;28;20478;-78
2021/06/17 06:29:33;;;;;;;8.48;6.50;;;24.10;72.40;;;;;;5049816;28;20030;-79
2021/06/17 06:31:59;;;;;;;11.15;8.27;;;24.20;71.90;;;;;;5050312;28;20474;-80
2021/06/17 06:34:26;;;;;;;12.10;7.43;;;24.20;71.60;;;;;;5040045;28;20080;-80
2021/06/17 06:36:52;;;;;;;11.30;7.13;;;24.30;71.40;;;;;;5044880;28;20025;-79
2021/06/17 06:39:19;;;;;;;10.18;6.75;;;24.30;71.30;;;;;;5049479;28;20018;-78
2021/06/17 06:41:45;;;;;;;9.07;6.55;;;24.40;71.20;;;;;;5052910;28;20115;-79
2021/06/17 06:44:11;;;;;;;10.25;7.40;;;24.50;71.10;;;;;;5035211;28;20057;-78
2021/06/17 06:46:41;;;;;;;10.50;7.20;;;24.60;70.80;;;;;;5035650;28;20070;-83
2021/06/17 06:49:07;;;;;;;13.25;6.55;;;24.70;70.50;;;;;;5049322;28;20484;-78
2021/06/17 06:51:38;;;;;;;8.50;6.25;;;24.80;70.30;;;;;;5048703;28;20037;-77
2021/06/17 06:54:06;;;;;;;12.23;5.78;;;25.00;69.80;;;;;;5032625;28;20413;-80
2021/06/17 06:56:32;;;;;;;10.65;4.97;;;25.10;69.10;;;;;;5034115;28;20124;-79
2021/06/17 06:58:59;;;;;;;9.35;4.88;;;25.20;68.50;;;;;;5046783;28;20564;-79
2021/06/17 07:01:28;;;;;;;8.07;4.68;;;25.40;67.90;;;;;;5036604;28;20025;-82
2021/06/17 07:03:53;;;;;;;7.65;5.00;;;25.50;67.30;;;;;;5053199;28;20021;-83
2021/06/17 07:06:19;;;;;;;11.82;4.90;;;25.60;66.90;;;;;;5036379;28;20040;-83
2021/06/17 07:08:45;;;;;;;7.97;4.20;;;25.70;66.60;;;;;;5053353;28;20029;-82
2021/06/17 07:11:10;;;;;;;9.50;5.35;;;25.80;66.30;;;;;;5036501;28;20481;-82
2021/06/17 07:13:36;;;;;;;9.35;5.90;;;25.90;66.10;;;;;;5037745;28;20029;-85
2021/06/17 07:16:04;;;;;;;6.70;4.63;;;26.00;66.10;;;;;;4999491;28;20033;-84
2021/06/17 07:18:30;;;;;;;9.45;4.75;;;26.00;65.80;;;;;;5000817;28;20434;-83
2021/06/17 07:20:55;;;;;;;8.95;4.63;;;26.10;65.40;;;;;;5032905;28;20113;-83
2021/06/17 07:23:21;;;;;;;9.13;4.22;;;26.20;65.30;;;;;;5035580;28;20080;-83
2021/06/17 07:25:47;;;;;;;9.10;4.20;;;26.30;65.10;;;;;;5034030;28;20401;-83
2021/06/17 07:28:12;;;;;;;7.30;4.03;;;26.30;64.80;;;;;;5032608;28;20139;-83
2021/06/17 07:30:38;;;;;;;7.05;4.47;;;26.40;64.60;;;;;;5032219;28;20050;-83
2021/06/17 07:33:04;;;;;;;13.30;4.45;;;26.40;64.40;;;;;;5016026;28;20021;-83
2021/06/17 07:35:30;;;;;;;10.68;5.10;;;26.40;64.20;;;;;;5042244;28;20473;-83
2021/06/17 07:37:55;;;;;;;8.27;5.38;;;26.50;64.20;;;;;;5034716;28;20032;-83
2021/06/17 07:40:21;;;;;;;8.52;5.00;;;26.50;64.40;;;;;;5052290;28;20120;-84
2021/06/17 07:42:50;;;;;;;9.63;4.68;;;26.50;64.40;;;;;;5052577;28;20461;-82
2021/06/17 07:45:16;;;;;;;8.43;5.13;;;26.60;64.20;;;;;;5052462;28;20376;-85
2021/06/17 07:47:42;;;;;;;7.43;4.82;;;26.60;63.90;;;;;;5035765;28;20116;-83
2021/06/17 07:50:09;;;;;;;8.38;4.25;;;26.60;63.80;;;;;;5032280;28;20120;-83
2021/06/17 07:52:35;;;;;;;9.88;4.00;;;26.60;63.50;;;;;;5035765;28;20076;-83
2021/06/17 07:55:01;;;;;;;8.35;4.53;;;26.60;63.40;;;;;;5053198;28;20059;-83
2021/06/17 07:57:27;;;;;;;9.70;3.92;;;26.60;62.80;;;;;;5052135;28;20025;-83
2021/06/17 07:59:52;;;;;;;7.97;4.10;;;26.70;62.60;;;;;;5068581;28;20051;-84
2021/06/17 08:02:19;;;;;;;8.25;3.83;;;26.70;62.10;;;;;;5031515;28;20454;-85
2021/06/17 08:04:44;;;;;;;6.72;3.38;;;26.70;60.80;;;;;;4999955;28;20029;-85
2021/06/17 08:07:10;;;;;;;8.05;3.67;;;26.80;60.40;;;;;;5015185;28;20033;-87
2021/06/17 08:09:36;;;;;;;8.43;3.42;;;26.90;60.40;;;;;;5032240;28;20394;-85
2021/06/17 08:12:01;;;;;;;7.93;3.80;;;26.90;59.70;;;;;;5015436;28;20052;-87
2021/06/17 08:14:29;;;;;;;7.60;4.18;;;26.90;59.70;;;;;;5015743;28;20037;-85
2021/06/17 08:16:56;;;;;;;7.35;4.10;;;27.00;59.70;;;;;;5015958;28;20436;-86
2021/06/17 08:19:29;;;;;;;7.85;3.47;;;27.00;59.70;;;;;;5032975;28;20488;-86
2021/06/17 08:21:57;;;;;;;10.63;4.20;;;27.10;59.80;;;;;;5032128;28;20018;-85
2021/06/17 08:24:23;;;;;;;8.90;4.43;;;27.20;59.70;;;;;;5032017;28;20043;-84
2021/06/17 08:26:49;;;;;;;8.43;3.75;;;27.20;59.00;;;;;;5015177;28;20029;-85
2021/06/17 08:29:14;;;;;;;12.80;4.22;;;27.30;58.80;;;;;;5039390;28;20021;-85
2021/06/17 08:31:42;;;;;;;7.13;3.15;;;27.30;58.60;;;;;;5034580;28;20425;-84
2021/06/17 08:34:08;;;;;;;9.40;3.30;;;27.40;58.00;;;;;;5052929;28;20400;-84
2021/06/17 08:36:34;;;;;;;7.60;3.55;;;27.40;58.00;;;;;;5051388;28;20021;-85
2021/06/17 08:39:04;;;;;;;8.40;3.10;;;27.50;58.10;;;;;;5051896;28;20489;-86
2021/06/17 08:41:31;;;;;;;6.25;3.22;;;27.50;57.90;;;;;;5051361;28;20465;-85
2021/06/17 08:43:57;;;;;;;8.23;3.67;;;27.50;58.10;;;;;;5051797;28;20025;-85
2021/06/17 08:46:23;;;;;;;7.80;3.35;;;27.60;57.80;;;;;;5051375;28;20477;-86
2021/06/17 08:48:49;;;;;;;6.25;2.92;;;27.60;57.60;;;;;;5031246;28;20029;-87
2021/06/17 08:51:19;;;;;;;4.90;3.03;;;27.60;57.30;;;;;;5031930;28;20045;-85
2021/06/17 08:53:50;;;;;;;6.28;3.17;;;27.70;57.40;;;;;;5032096;28;20425;-86
2021/06/17 08:56:16;;;;;;;4.40;2.35;;;27.70;57.40;;;;;;5032187;28;20392;-86
2021/06/17 08:58:42;;;;;;;5.47;2.85;;;27.70;57.40;;;;;;5048384;28;20112;-87
2021/06/17 09:01:12;;;;;;;8.68;3.05;;;27.80;57.10;;;;;;5031733;28;20022;-85
2021/06/17 09:03:42;;;;;;;5.53;3.05;;;27.90;57.00;;;;;;5031223;28;20065;-85
2021/06/17 09:06:08;;;;;;;4.82;2.80;;;27.90;56.70;;;;;;5049345;28;20025;-86
2021/06/17 09:08:35;;;;;;;7.07;3.35;;;28.00;56.50;;;;;;5051291;28;20029;-86
2021/06/17 09:11:16;;;;;;;6.20;2.70;;;28.00;56.50;;;;;;5051403;28;20507;-86
2021/06/17 09:13:42;;;;;;;5.63;2.85;;;28.10;56.60;;;;;;5052581;28;20028;-85
2021/06/17 09:16:07;;;;;;;8.20;3.28;;;28.20;56.70;;;;;;5035098;28;20117;-86
2021/06/17 09:18:37;;;;;;;5.43;3.10;;;28.30;57.10;;;;;;5018137;28;20029;-87
2021/06/17 09:21:10;;;;;;;4.78;2.90;;;28.30;56.10;;;;;;5052940;28;20033;-86
2021/06/17 09:23:40;;;;;;;4.80;2.80;;;28.40;55.80;;;;;;5051617;28;20021;-87
2021/06/17 09:26:09;;;;;;;4.18;2.88;;;28.50;55.80;;;;;;5051095;28;20017;-87
2021/06/17 09:28:53;;;;;;;6.60;2.22;;;28.60;55.70;;;;;;5045605;28;20070;-85
2021/06/17 09:31:20;;;;;;;7.82;2.70;;;28.60;55.50;;;;;;5046475;28;20029;-84
2021/06/17 09:33:48;;;;;;;4.95;2.85;;;28.60;55.40;;;;;;5048201;28;20079;-83
2021/06/17 09:36:14;;;;;;;6.18;2.20;;;28.70;55.40;;;;;;5047075;28;20029;-84
2021/06/17 09:38:51;;;;;;;8.52;2.55;;;28.70;55.30;;;;;;5032695;28;20051;-84
2021/06/17 09:41:29;;;;;;;5.30;2.72;;;28.80;55.60;;;;;;5052947;28;20032;-85
2021/06/17 09:43:55;;;;;;;8.65;2.90;;;28.90;55.70;;;;;;5056060;28;20109;-85
2021/06/17 09:46:22;;;;;;;6.60;2.63;;;28.90;55.80;;;;;;5054516;28;20040;-85
2021/06/17 09:48:51;;;;;;;7.82;2.65;;;29.00;55.90;;;;;;5054675;28;20534;-85
2021/06/17 09:51:38;;;;;;;7.80;2.78;;;29.10;55.60;;;;;;5054205;28;20037;-85
2021/06/17 09:54:23;;;;;;;6.50;2.42;;;29.10;55.10;;;;;;5055814;28;20041;-85
2021/06/17 09:56:50;;;;;;;5.38;2.58;;;29.30;55.20;;;;;;5054335;28;20029;-86
2021/06/17 09:59:34;;;;;;;9.55;2.53;;;29.40;55.20;;;;;;5054442;28;20025;-84
2021/06/17 10:01:59;;;;;;;8.00;2.55;;;29.40;55.40;;;;;;5039931;28;20033;-85
2021/06/17 10:04:25;;;;;;;6.15;2.25;;;29.50;55.40;;;;;;5040059;28;20112;-85
2021/06/17 10:06:51;;;;;;;5.90;2.08;;;29.60;55.10;;;;;;5044966;28;20466;-84
2021/06/17 10:09:17;;;;;;;6.35;2.33;;;29.70;54.90;;;;;;5033730;28;20032;-86
2021/06/17 10:11:43;;;;;;;12.30;2.92;;;29.80;54.60;;;;;;5053769;28;20405;-86
2021/06/17 10:14:10;;;;;;;6.40;2.33;;;29.90;54.40;;;;;;5046033;28;20025;-85
2021/06/17 10:16:38;;;;;;;5.38;2.47;;;30.00;54.30;;;;;;5043803;28;20029;-83
2021/06/17 10:19:04;;;;;;;4.85;2.25;;;30.10;53.80;;;;;;5050698;28;20029;-84
2021/06/17 10:21:33;;;;;;;5.80;2.35;;;30.30;53.50;;;;;;5043048;28;20028;-83
2021/06/17 10:24:01;;;;;;;6.40;2.60;;;30.40;53.40;;;;;;5038916;28;20032;-85
2021/06/17 10:26:30;;;;;;;6.68;3.13;;;30.50;53.50;;;;;;5052614;28;20100;-84
2021/06/17 10:29:00;;;;;;;6.90;2.63;;;30.60;53.50;;;;;;5049219;28;20021;-85
2021/06/17 10:31:39;;;;;;;4.95;2.63;;;30.80;53.30;;;;;;5053561;28;20033;-84
2021/06/17 10:34:23;;;;;;;6.10;3.05;;;30.90;52.80;;;;;;5053169;28;20035;-84
2021/06/17 10:37:10;;;;;;;5.80;3.10;;;31.00;52.60;;;;;;5044948;28;20115;-85
2021/06/17 10:39:38;;;;;;;5.93;2.83;;;31.20;52.70;;;;;;5042508;28;20021;-84
2021/06/17 10:42:04;;;;;;;5.25;2.83;;;31.30;52.80;;;;;;5050694;28;20032;-84
2021/06/17 10:44:45;;;;;;;4.55;2.63;;;31.50;52.70;;;;;;5045541;28;20029;-84
2021/06/17 10:47:47;;;;;;;8.35;2.97;;;31.70;52.30;;;;;;5050257;28;20025;-85
2021/06/17 10:50:47;;;;;;;6.50;2.58;;;31.90;51.90;;;;;;5040482;28;20381;-84
2021/06/17 10:53:50;;;;;;;5.03;2.50;;;32.10;51.70;;;;;;5051524;28;20021;-85
2021/06/17 10:56:19;;;;;;;4.73;2.60;;;32.30;51.50;;;;;;5043495;28;20036;-86
2021/06/17 10:58:45;;;;;;;6.43;2.53;;;32.50;51.20;;;;;;5049656;28;20022;-84
2021/06/17 11:01:21;;;;;;;4.15;2.83;;;32.60;50.70;;;;;;5051643;28;20095;-85
2021/06/17 11:04:17;;;;;;;3.75;2.33;;;32.70;50.30;;;;;;5052970;28;20052;-84
2021/06/17 11:07:06;;;;;;;7.00;2.83;;;32.80;50.00;;;;;;5052500;28;20108;-85
2021/06/17 11:09:37;;;;;;;7.20;2.97;;;32.90;50.00;;;;;;5050874;28;20481;-86
2021/06/17 11:12:25;;;;;;;5.22;2.67;;;32.90;50.00;;;;;;5053684;28;20076;-86
2021/06/17 11:14:57;;;;;;;11.70;3.40;;;33.10;49.70;;;;;;5049092;28;20547;-86
2021/06/17 11:17:26;;;;;;;7.85;3.10;;;33.30;49.40;;;;;;5052876;28;20017;-85
2021/06/17 11:20:18;;;;;;;6.07;3.83;;;33.50;48.90;;;;;;5052945;28;20035;-86
2021/06/17 11:22:47;;;;;;;6.40;3.25;;;33.70;48.40;;;;;;5037374;28;20061;-85
2021/06/17 11:25:21;;;;;;;6.55;3.05;;;33.80;48.30;;;;;;5050053;28;20087;-84
2021/06/17 11:28:04;;;;;;;8.93;2.95;;;34.00;47.80;;;;;;5035669;28;20027;-87
2021/06/17 11:30:38;;;;;;;5.87;2.73;;;34.10;47.60;;;;;;5052707;28;20068;-89
2021/06/17 11:33:19;;;;;;;4.65;2.42;;;34.40;47.10;;;;;;5054108;28;20043;-89
2021/06/17 11:36:10;;;;;;;5.38;3.03;;;34.60;45.90;;;;;;5052495;28;20033;-89
2021/06/17 11:38:36;;;;;;;4.93;2.67;;;34.70;45.20;;;;;;5044074;28;20079;-87
2021/06/17 11:41:17;;;;;;;6.45;3.00;;;34.80;44.90;;;;;;5049231;28;20132;-87
2021/06/17 11:43:43;;;;;;;6.13;2.95;;;34.90;44.50;;;;;;5049533;28;20026;-88
2021/06/17 11:46:24;;;;;;;6.63;2.88;;;35.00;44.50;;;;;;5032645;28;20025;-89
2021/06/17 11:49:12;;;;;;;4.80;2.63;;;35.10;44.30;;;;;;5032558;28;20026;-88
2021/06/17 11:51:51;;;;;;;10.05;2.90;;;35.20;44.20;;;;;;5036488;28;20056;-90
2021/06/17 11:54:21;;;;;;;5.88;2.30;;;35.20;44.00;;;;;;5049044;28;20049;-89
2021/06/17 11:56:56;;;;;;;4.43;2.55;;;35.20;44.10;;;;;;5049119;28;20113;-87
2021/06/17 11:59:25;;;;;;;7.05;3.08;;;35.40;44.80;;;;;;5049223;28;20022;-87
2021/06/17 12:02:03;;;;;;;6.00;2.67;;;35.60;44.10;;;;;;5043063;28;20377;-88
2021/06/17 12:04:41;;;;;;;5.07;3.05;;;35.80;43.60;;;;;;5034687;28;20500;-88
2021/06/17 12:07:07;;;;;;;3.85;2.40;;;36.00;43.20;;;;;;5050934;28;20059;-88
2021/06/17 12:09:33;;;;;;;5.80;2.75;;;36.10;43.20;;;;;;5035722;28;20044;-88
2021/06/17 12:12:34;;;;;;;6.93;2.70;;;36.10;42.80;;;;;;5052990;28;20051;-87
2021/06/17 12:15:03;;;;;;;4.40;2.08;;;36.00;41.70;;;;;;4993560;28;20037;-86
2021/06/17 12:17:30;;;;;;;6.05;2.58;;;35.80;41.70;;;;;;5044853;28;20037;-89
2021/06/17 12:20:20;;;;;;;6.50;2.97;;;35.90;41.70;;;;;;5052338;28;20025;-88
2021/06/17 12:22:48;;;;;;;5.57;2.90;;;36.00;41.50;;;;;;5043382;28;20029;-89
2021/06/17 12:25:18;;;;;;;6.03;2.22;;;36.00;41.20;;;;;;5053092;28;20029;-88
2021/06/17 12:27:45;;;;;;;4.30;2.10;;;36.20;41.30;;;;;;5051793;28;20533;-89
2021/06/17 12:30:36;;;;;;;5.68;2.13;;;36.10;40.90;;;;;;5052156;28;20033;-89
2021/06/17 12:33:15;;;;;;;4.97;1.80;;;36.20;40.70;;;;;;5053665;28;20023;-89
2021/06/17 12:35:57;;;;;;;2.95;1.33;;;36.20;40.00;;;;;;5055061;28;20033;-90
2021/06/17 12:38:31;;;;;;;6.63;1.57;;;36.20;39.70;;;;;;5060816;28;20124;-87
2021/06/17 12:41:15;;;;;;;5.03;1.73;;;36.10;39.50;;;;;;5064965;28;20283;-87
2021/06/17 12:43:53;;;;;;;5.57;1.80;;;36.20;39.80;;;;;;5054455;28;20036;-88
2021/06/17 12:46:38;;;;;;;3.53;1.35;;;36.30;39.60;;;;;;5053986;28;20021;-88
2021/06/17 12:52:10;;;;;;;2.70;1.10;;;36.70;39.30;;;;;;5030987;28;20048;-90
2021/06/17 12:54:39;;;;;;;4.72;1.65;;;36.90;39.20;;;;;;5034975;28;20053;-88
2021/06/17 12:57:05;;;;;;;5.10;1.60;;;37.20;38.90;;;;;;5049080;28;20025;-88